Praha-Libus, Czech Republic
Current Conditions -  °F | °C
As of 9:00 AM on Saturday 20 Dec 2014 (Local Time) from LKKB Reporting Station
Clear Clear  
Wind Chill: 29°   Ceiling: Unl
Heat Index: 37°   Visibility: 6mi
Dew Point: 32°   Wind: 15mph
Humidity: 81%   Direction: 230°SW
Pressure: 30.09"   Gusts: NA
Location:  50.01°N, 14.46°E
Report Text: LKKB 200700Z 23013KT CAVOK 03/M00 Q1019 NOSIG
Loading
Personal Weather Stations






























Interactive Weather Map New forecast layout! Learn more

10-Day Weather Forecast

Advertisements
Track Severe Weather on mobile